Time;durP1;ratioP1;P1;durP2;ratioP2;P2;SDS_P1;SDS_P2;PMS_P1;PMS_P2;Temp;Humidity;BMP_temperature;BMP_pressure;BME280_temperature;BME280_humidity;BME280_pressure;Samples;Min_cycle;Max_cycle;Signal;HPM_P1;HPM_P2
2023/11/18 00:01:34;;;;;;;7.43;2.00;;;;;;;-141.23;100.00;62281.09;5018502;28;20044;-75
2023/11/18 00:04:01;;;;;;;6.23;2.43;;;;;;;-141.23;100.00;62281.09;5011234;28;20092;-74
2023/11/18 00:06:28;;;;;;;2.53;1.80;;;;;;;-141.23;100.00;62281.09;5011288;28;20073;-75
2023/11/18 00:08:55;;;;;;;5.00;2.00;;;;;;;-141.23;100.00;62281.09;5027863;28;20480;-75
2023/11/18 00:11:23;;;;;;;5.50;2.20;;;;;;;-141.23;100.00;62281.09;5011960;28;20148;-75
2023/11/18 00:13:50;;;;;;;6.97;2.30;;;;;;;-141.23;100.00;62281.09;5031139;28;20049;-75
2023/11/18 00:16:16;;;;;;;7.17;2.40;;;;;;;-141.23;100.00;62281.09;5014931;28;20061;-75
2023/11/18 00:18:43;;;;;;;5.47;2.87;;;;;;;-141.23;100.00;62281.09;5014837;28;20144;-75
2023/11/18 00:21:10;;;;;;;9.03;3.10;;;;;;;-141.23;100.00;62281.09;5031232;28;20053;-74
2023/11/18 00:23:37;;;;;;;7.70;2.60;;;;;;;-141.23;100.00;62281.09;5070954;28;20060;-75
2023/11/18 00:26:03;;;;;;;4.73;2.47;;;;;;;-141.23;100.00;62281.09;5054593;28;20064;-74
2023/11/18 00:28:29;;;;;;;4.83;2.40;;;;;;;-141.23;100.00;62281.09;5051009;28;20049;-75
2023/11/18 00:30:56;;;;;;;6.70;2.30;;;;;;;-141.23;100.00;62281.09;5001761;28;20064;-74
2023/11/18 00:33:22;;;;;;;6.23;2.27;;;;;;;-141.23;100.00;62281.09;5050034;28;20056;-75
2023/11/18 00:35:49;;;;;;;7.13;2.33;;;;;;;-141.23;100.00;62281.09;5001258;28;20090;-75
2023/11/18 00:38:17;;;;;;;3.27;2.27;;;;;;;-141.23;100.00;62281.09;5014799;28;20085;-73
2023/11/18 00:40:44;;;;;;;5.80;2.60;;;;;;;-141.23;100.00;62281.09;5006502;28;20352;-74
2023/11/18 00:43:11;;;;;;;13.23;2.63;;;;;;;-141.23;100.00;62281.09;5054289;28;20109;-75
2023/11/18 00:45:38;;;;;;;6.63;2.40;;;;;;;-141.23;100.00;62281.09;4968897;28;20178;-75
2023/11/18 00:48:04;;;;;;;6.50;2.33;;;;;;;-141.23;100.00;62281.09;4988055;28;20055;-73
2023/11/18 00:50:33;;;;;;;8.43;2.90;;;;;;;-141.23;100.00;62281.09;4987800;28;20054;-75
2023/11/18 00:53:01;;;;;;;11.30;2.90;;;;;;;-141.23;100.00;62281.09;4987773;28;20047;-74
2023/11/18 00:55:27;;;;;;;7.13;2.53;;;;;;;-141.23;100.00;62281.09;4971811;28;20089;-74
2023/11/18 00:57:54;;;;;;;6.67;2.60;;;;;;;-141.23;100.00;62281.09;4936492;29;20069;-74
2023/11/18 01:00:22;;;;;;;3.97;2.43;;;;;;;-141.23;100.00;62281.09;4955701;28;20105;-74
2023/11/18 01:02:49;;;;;;;7.53;2.60;;;;;;;-141.23;100.00;62281.09;4955566;28;20086;-76
2023/11/18 01:05:15;;;;;;;5.57;2.47;;;;;;;-141.23;100.00;62281.09;4955502;28;20085;-75
2023/11/18 01:07:43;;;;;;;4.80;2.43;;;;;;;-141.23;100.00;62281.09;4939643;28;20109;-75
2023/11/18 01:10:13;;;;;;;5.97;2.30;;;;;;;-141.23;100.00;62281.09;4972058;28;20102;-73
2023/11/18 01:12:44;;;;;;;5.00;2.73;;;;;;;-141.23;100.00;62281.09;4955743;28;20057;-79
2023/11/18 01:15:12;;;;;;;6.45;2.40;;;;;;;-141.23;100.00;62281.09;4954964;28;20051;-82
2023/11/18 01:17:38;;;;;;;11.83;2.70;;;;;;;-141.23;100.00;62281.09;5066108;28;20109;-73
2023/11/18 01:20:10;;;;;;;5.93;2.70;;;;;;;-141.23;100.00;62281.09;5057108;28;20054;-74
2023/11/18 01:22:37;;;;;;;6.43;2.63;;;;;;;-141.23;100.00;62281.09;5073692;28;20051;-74
2023/11/18 01:25:08;;;;;;;6.07;2.60;;;;;;;-141.23;100.00;62281.09;5073430;28;20138;-74
2023/11/18 01:27:36;;;;;;;4.23;2.73;;;;;;;-141.23;100.00;62281.09;5040529;28;20044;-75
2023/11/18 01:30:04;;;;;;;9.23;2.67;;;;;;;-141.23;100.00;62281.09;5060126;28;20141;-74
2023/11/18 01:32:32;;;;;;;4.60;2.50;;;;;;;-141.23;100.00;62281.09;5033070;28;20075;-74
2023/11/18 01:34:58;;;;;;;4.77;2.33;;;;;;;-141.23;100.00;62281.09;5002476;28;20065;-74
2023/11/18 01:37:25;;;;;;;4.07;2.20;;;;;;;-141.23;100.00;62281.09;5000506;28;20484;-74
2023/11/18 01:39:50;;;;;;;4.80;2.67;;;;;;;-141.23;100.00;62281.09;5000457;28;20052;-74
2023/11/18 01:42:18;;;;;;;6.90;2.40;;;;;;;-141.23;100.00;62281.09;5000393;28;20119;-74
2023/11/18 01:44:45;;;;;;;7.50;2.67;;;;;;;-141.23;100.00;62281.09;5015959;28;20048;-75
2023/11/18 01:47:13;;;;;;;6.60;3.00;;;;;;;-141.23;100.00;62281.09;5016708;28;20588;-79
2023/11/18 01:49:40;;;;;;;6.23;2.57;;;;;;;-141.23;100.00;62281.09;5013408;28;20149;-74
2023/11/18 01:52:08;;;;;;;7.67;2.80;;;;;;;-141.23;100.00;62281.09;4954932;28;20059;-75
2023/11/18 01:54:37;;;;;;;4.13;2.87;;;;;;;-141.23;100.00;62281.09;5003948;28;20520;-75
2023/11/18 01:57:05;;;;;;;7.23;2.97;;;;;;;-141.23;100.00;62281.09;5009825;28;20050;-72
2023/11/18 01:59:33;;;;;;;4.43;2.70;;;;;;;-141.23;100.00;62281.09;4993748;28;20045;-75
2023/11/18 02:02:02;;;;;;;5.90;3.13;;;;;;;-141.23;100.00;62281.09;4970800;28;20241;-73
2023/11/18 02:04:29;;;;;;;7.70;3.03;;;;;;;-141.23;100.00;62281.09;4939012;28;20061;-74
2023/11/18 02:06:57;;;;;;;4.10;2.70;;;;;;;-141.23;100.00;62281.09;4970950;28;20072;-74
2023/11/18 02:09:28;;;;;;;6.53;3.67;;;;;;;-141.23;100.00;62281.09;4921175;29;20137;-73
2023/11/18 02:12:22;;;;;;;5.13;3.17;;;;;;;-141.23;100.00;62281.09;4954495;28;20483;-73
2023/11/18 02:14:49;;;;;;;4.57;2.73;;;;;;;-141.23;100.00;62281.09;4971784;28;20055;-74
2023/11/18 02:17:19;;;;;;;6.63;2.80;;;;;;;-141.23;100.00;62281.09;4971533;28;20074;-76
2023/11/18 02:19:49;;;;;;;13.53;3.30;;;;;;;-141.23;100.00;62281.09;4974292;28;20677;-77
2023/11/18 02:22:33;;;;;;;8.07;2.87;;;;;;;-141.23;100.00;62281.09;4967877;28;20153;-75
2023/11/18 02:25:06;;;;;;;9.30;3.63;;;;;;;-141.23;100.00;62281.09;4990323;28;20470;-76
2023/11/18 02:27:34;;;;;;;6.63;3.23;;;;;;;-141.23;100.00;62281.09;4992056;28;20094;-75
2023/11/18 02:30:00;;;;;;;7.07;3.50;;;;;;;-141.23;100.00;62281.09;5006378;28;20050;-73
2023/11/18 02:32:37;;;;;;;8.68;3.38;;;;;;;-141.23;100.00;62281.09;5011664;28;20437;-73
2023/11/18 02:35:23;;;;;;;7.57;3.73;;;;;;;-141.23;100.00;62281.09;5026151;28;20037;-73
2023/11/18 02:37:54;;;;;;;7.53;3.90;;;;;;;-141.23;100.00;62281.09;4993831;28;20053;-72
2023/11/18 02:40:32;;;;;;;9.67;3.57;;;;;;;-141.23;100.00;62281.09;4978185;28;20046;-74
2023/11/18 02:43:00;;;;;;;7.63;3.50;;;;;;;-141.23;100.00;62281.09;5031277;28;20052;-74
2023/11/18 02:45:28;;;;;;;14.93;3.53;;;;;;;-141.23;100.00;62281.09;4989880;28;20061;-74
2023/11/18 02:47:57;;;;;;;10.63;3.43;;;;;;;-141.23;100.00;62281.09;4976506;28;20429;-75
2023/11/18 02:50:30;;;;;;;11.10;4.00;;;;;;;-141.23;100.00;62281.09;4993832;28;20054;-75
2023/11/18 02:52:59;;;;;;;6.23;3.77;;;;;;;-141.23;100.00;62281.09;4996924;28;20147;-75
2023/11/18 02:55:28;;;;;;;7.40;3.60;;;;;;;-141.23;100.00;62281.09;4993363;28;20162;-77
2023/11/18 02:57:56;;;;;;;6.97;3.87;;;;;;;-141.23;100.00;62281.09;5011100;28;20070;-78
2023/11/18 03:00:23;;;;;;;5.00;3.80;;;;;;;-141.23;100.00;62281.09;4996707;28;20061;-77
2023/11/18 03:02:55;;;;;;;10.07;4.40;;;;;;;-141.23;100.00;62281.09;5036206;28;20053;-77
2023/11/18 03:05:26;;;;;;;11.70;4.10;;;;;;;-141.23;100.00;62281.09;5002852;28;20061;-75
2023/11/18 03:07:54;;;;;;;8.77;4.57;;;;;;;-141.23;100.00;62281.09;5003317;28;20055;-76
2023/11/18 03:10:22;;;;;;;10.83;4.63;;;;;;;-141.23;100.00;62281.09;5003397;28;20053;-75
2023/11/18 03:12:53;;;;;;;18.53;4.63;;;;;;;-141.23;100.00;62281.09;5036116;28;20767;-76
2023/11/18 03:15:20;;;;;;;7.75;4.72;;;;;;;-141.23;100.00;62281.09;4997235;28;20057;-76
2023/11/18 03:17:49;;;;;;;6.33;4.30;;;;;;;-141.23;100.00;62281.09;5016425;28;20373;-75
2023/11/18 03:20:20;;;;;;;10.57;4.67;;;;;;;-141.23;100.00;62281.09;5016578;28;20526;-75
2023/11/18 03:22:48;;;;;;;6.43;4.50;;;;;;;-141.23;100.00;62281.09;4993245;28;20148;-76
2023/11/18 03:25:15;;;;;;;12.27;5.53;;;;;;;-141.23;100.00;62281.09;4993604;28;20062;-76
2023/11/18 03:27:42;;;;;;;7.23;4.60;;;;;;;-141.23;100.00;62281.09;4976597;28;20058;-76
2023/11/18 03:30:10;;;;;;;9.07;4.60;;;;;;;-141.23;100.00;62281.09;4976855;28;20042;-77
2023/11/18 03:32:38;;;;;;;8.00;4.60;;;;;;;-141.23;100.00;62281.09;4976906;28;20424;-76
2023/11/18 03:35:08;;;;;;;12.40;4.93;;;;;;;-141.23;100.00;62281.09;4982131;28;20092;-73
2023/11/18 03:37:38;;;;;;;6.72;4.43;;;;;;;-141.23;100.00;62281.09;4996258;28;20444;-74
2023/11/18 03:40:09;;;;;;;8.23;4.40;;;;;;;-141.23;100.00;62281.09;4979246;28;20065;-73
2023/11/18 03:42:36;;;;;;;6.10;4.37;;;;;;;-141.23;100.00;62281.09;4996190;28;20077;-74
2023/11/18 03:45:05;;;;;;;4.67;3.80;;;;;;;-141.23;100.00;62281.09;5000887;28;20045;-74
2023/11/18 03:47:34;;;;;;;10.53;4.57;;;;;;;-141.23;100.00;62281.09;5101110;28;20245;-74
2023/11/18 03:50:01;;;;;;;8.67;4.30;;;;;;;-141.23;100.00;62281.09;5084923;28;20048;-74
2023/11/18 03:52:29;;;;;;;12.53;4.30;;;;;;;-141.23;100.00;62281.09;5052261;28;20048;-74
2023/11/18 03:54:56;;;;;;;10.60;4.33;;;;;;;-141.23;100.00;62281.09;5084440;28;20059;-74
2023/11/18 03:57:22;;;;;;;11.43;4.03;;;;;;;-141.23;100.00;62281.09;5034454;28;20085;-75
2023/11/18 03:59:50;;;;;;;8.73;3.97;;;;;;;-141.23;100.00;62281.09;5035647;28;20056;-74
2023/11/18 04:02:16;;;;;;;12.43;4.43;;;;;;;-141.23;100.00;62281.09;5044417;28;20057;-74
2023/11/18 04:04:44;;;;;;;19.33;4.87;;;;;;;-141.23;100.00;62281.09;4969434;28;20058;-75
2023/11/18 04:07:12;;;;;;;8.37;4.07;;;;;;;-141.23;100.00;62281.09;4978960;28;20042;-75
2023/11/18 04:09:43;;;;;;;10.43;4.20;;;;;;;-141.23;100.00;62281.09;4979648;28;20058;-75
2023/11/18 04:12:10;;;;;;;8.77;5.25;;;;;;;-141.23;100.00;62281.09;4980110;28;20054;-74
2023/11/18 04:14:37;;;;;;;16.73;5.67;;;;;;;-141.23;100.00;62281.09;4997459;28;20054;-74
2023/11/18 04:17:08;;;;;;;9.13;5.37;;;;;;;-141.23;100.00;62281.09;4962515;28;20051;-74
2023/11/18 04:19:34;;;;;;;10.60;5.73;;;;;;;-141.23;100.00;62281.09;4949137;28;20059;-73
2023/11/18 04:22:01;;;;;;;13.83;5.50;;;;;;;-141.23;100.00;62281.09;4968746;28;20098;-75
2023/11/18 04:24:27;;;;;;;10.27;5.80;;;;;;;-141.23;100.00;62281.09;4951962;28;20046;-75
2023/11/18 04:26:55;;;;;;;12.17;5.50;;;;;;;-141.23;100.00;62281.09;4949681;28;20043;-76
2023/11/18 04:29:23;;;;;;;14.23;6.40;;;;;;;-141.23;100.00;62281.09;4967608;28;20134;-79
2023/11/18 04:31:49;;;;;;;11.07;5.50;;;;;;;-141.23;100.00;62281.09;4948504;28;20157;-76
2023/11/18 04:34:16;;;;;;;9.17;5.37;;;;;;;-141.23;100.00;62281.09;5010937;28;20049;-74
2023/11/18 04:36:42;;;;;;;8.50;4.87;;;;;;;-141.23;100.00;62281.09;5015034;28;20054;-74
2023/11/18 04:39:11;;;;;;;15.50;6.00;;;;;;;-141.23;100.00;62281.09;5005792;28;20137;-75
2023/11/18 04:41:39;;;;;;;9.77;5.70;;;;;;;-141.23;100.00;62281.09;4991826;28;20081;-75
2023/11/18 04:44:06;;;;;;;20.20;5.77;;;;;;;-141.23;100.00;62281.09;5001961;28;20114;-75
2023/11/18 04:46:36;;;;;;;21.97;5.40;;;;;;;-141.23;100.00;62281.09;5030675;28;20060;-75
2023/11/18 04:49:02;;;;;;;15.10;4.67;;;;;;;-141.23;100.00;62281.09;5006353;28;20077;-75
2023/11/18 04:51:29;;;;;;;13.40;5.60;;;;;;;-141.23;100.00;62281.09;5025888;28;20064;-76
2023/11/18 04:53:58;;;;;;;19.97;5.43;;;;;;;-141.23;100.00;62281.09;5022467;28;20065;-76
2023/11/18 04:56:25;;;;;;;12.03;5.20;;;;;;;-141.23;100.00;62281.09;5001163;28;20054;-77
2023/11/18 04:58:51;;;;;;;17.90;5.50;;;;;;;-141.23;100.00;62281.09;4982078;28;20144;-76
2023/11/18 05:01:18;;;;;;;19.47;5.37;;;;;;;-141.23;100.00;62281.09;4995000;28;20045;-74
2023/11/18 05:03:45;;;;;;;12.80;5.60;;;;;;;-141.23;100.00;62281.09;5016356;28;20451;-76
2023/11/18 05:06:13;;;;;;;19.70;6.63;;;;;;;-141.23;100.00;62281.09;5013969;28;20609;-77
2023/11/18 05:08:41;;;;;;;15.70;6.03;;;;;;;-141.23;100.00;62281.09;5036803;28;20083;-74
2023/11/18 05:11:09;;;;;;;15.00;5.47;;;;;;;-141.23;100.00;62281.09;5039598;28;20100;-74
2023/11/18 05:13:39;;;;;;;15.73;6.03;;;;;;;-141.23;100.00;62281.09;5057081;28;20146;-75
2023/11/18 05:16:07;;;;;;;16.13;5.37;;;;;;;-141.23;100.00;62281.09;5057092;28;20082;-73
2023/11/18 05:18:36;;;;;;;18.87;5.93;;;;;;;-141.23;100.00;62281.09;5033077;28;20081;-74
2023/11/18 05:21:05;;;;;;;12.70;5.03;;;;;;;-141.23;100.00;62281.09;5072256;28;20066;-74
2023/11/18 05:23:38;;;;;;;11.77;4.57;;;;;;;-141.23;100.00;62281.09;5069779;28;20052;-77
2023/11/18 05:26:05;;;;;;;11.17;5.10;;;;;;;-141.23;100.00;62281.09;5037080;28;20052;-78
2023/11/18 05:28:32;;;;;;;16.47;4.70;;;;;;;-141.23;100.00;62281.09;5017698;28;20084;-78
2023/11/18 05:31:02;;;;;;;7.67;3.70;;;;;;;-141.23;100.00;62281.09;5000243;28;20519;-77
2023/11/18 05:33:30;;;;;;;13.57;4.60;;;;;;;-141.23;100.00;62281.09;5017050;28;20056;-75
2023/11/18 05:36:27;;;;;;;6.47;3.97;;;;;;;-141.23;100.00;62281.09;5023881;28;20060;-75
2023/11/18 05:38:55;;;;;;;9.63;5.37;;;;;;;-141.23;100.00;62281.09;5017191;28;20068;-75
2023/11/18 05:41:27;;;;;;;7.63;5.50;;;;;;;-141.23;100.00;62281.09;5050312;28;20101;-77
2023/11/18 05:43:57;;;;;;;8.40;5.73;;;;;;;-141.23;100.00;62281.09;5033422;28;20052;-77
2023/11/18 05:46:25;;;;;;;12.93;5.80;;;;;;;-141.23;100.00;62281.09;5037772;28;20049;-72
2023/11/18 05:48:52;;;;;;;11.13;6.37;;;;;;;-141.23;100.00;62281.09;5021604;28;20503;-77
2023/11/18 05:51:28;;;;;;;10.63;5.27;;;;;;;-141.23;100.00;62281.09;5019975;28;20110;-76
2023/11/18 05:54:01;;;;;;;6.07;4.37;;;;;;;-141.23;100.00;62281.09;5036636;28;20053;-76
2023/11/18 05:56:28;;;;;;;8.87;4.80;;;;;;;-141.23;100.00;62281.09;5018890;28;20056;-76
2023/11/18 05:58:56;;;;;;;9.80;4.73;;;;;;;-141.23;100.00;62281.09;5030683;28;20541;-73
2023/11/18 06:01:28;;;;;;;7.67;4.20;;;;;;;-141.23;100.00;62281.09;5072206;28;20103;-69
2023/11/18 06:03:54;;;;;;;11.32;4.72;;;;;;;-141.23;100.00;62281.09;5055258;28;20854;-69
2023/11/18 06:06:21;;;;;;;16.50;4.53;;;;;;;-141.23;100.00;62281.09;5055375;28;20039;-68
2023/11/18 06:08:47;;;;;;;14.20;5.10;;;;;;;-141.23;100.00;62281.09;5073553;28;20055;-68
2023/11/18 06:11:14;;;;;;;6.93;4.33;;;;;;;-141.23;100.00;62281.09;5055204;28;20108;-70
2023/11/18 06:13:52;;;;;;;9.67;4.37;;;;;;;-141.23;100.00;62281.09;5070731;28;20043;-71
2023/11/18 06:16:21;;;;;;;7.37;4.40;;;;;;;-141.23;100.00;62281.09;5050955;28;20823;-66
2023/11/18 06:18:49;;;;;;;8.50;4.30;;;;;;;-141.23;100.00;62281.09;5070879;28;20058;-68
2023/11/18 06:21:16;;;;;;;13.57;5.17;;;;;;;-141.23;100.00;62281.09;5070763;28;20043;-68
2023/11/18 06:23:48;;;;;;;8.63;4.67;;;;;;;-141.23;100.00;62281.09;5047304;28;20508;-70
2023/11/18 06:26:14;;;;;;;15.23;5.13;;;;;;;-141.23;100.00;62281.09;5031618;28;20106;-71
2023/11/18 06:28:42;;;;;;;9.47;5.03;;;;;;;-141.23;100.00;62281.09;5011883;28;20144;-69
2023/11/18 06:31:11;;;;;;;13.00;5.87;;;;;;;-141.23;100.00;62281.09;5010513;28;20465;-69
2023/11/18 06:33:42;;;;;;;12.60;5.43;;;;;;;-141.23;100.00;62281.09;5017793;28;20115;-73
2023/11/18 06:36:21;;;;;;;11.40;4.80;;;;;;;-141.23;100.00;62281.09;5017257;28;20098;-78
2023/11/18 06:38:50;;;;;;;10.67;5.30;;;;;;;-141.23;100.00;62281.09;5057104;28;20190;-78
2023/11/18 06:41:17;;;;;;;13.07;5.03;;;;;;;-141.23;100.00;62281.09;5041984;28;20054;-71
2023/11/18 06:44:00;;;;;;;12.80;4.67;;;;;;;-141.23;100.00;62281.09;5031450;28;20053;-76
2023/11/18 06:46:39;;;;;;;11.33;5.43;;;;;;;-141.23;100.00;62281.09;5007294;28;20061;-77
2023/11/18 06:49:10;;;;;;;11.60;4.43;;;;;;;-141.23;100.00;62281.09;4980333;28;20171;-73
2023/11/18 06:51:37;;;;;;;8.90;4.10;;;;;;;-141.23;100.00;62281.09;4977190;28;20568;-79
2023/11/18 06:54:13;;;;;;;9.52;4.28;;;;;;;-141.23;100.00;62281.09;4986012;28;20064;-78
2023/11/18 06:56:42;;;;;;;6.25;3.08;;;;;;;-141.23;100.00;62281.09;5001173;28;20118;-81
2023/11/18 06:59:12;;;;;;;5.10;2.40;;;;;;;-141.23;100.00;62281.09;5016255;28;20546;-78
2023/11/18 07:01:42;;;;;;;5.43;2.05;;;;;;;-141.23;100.00;62281.09;5018420;28;20057;-69
2023/11/18 07:04:08;;;;;;;6.68;2.20;;;;;;;-141.23;100.00;62281.09;5018829;28;20092;-70
2023/11/18 07:06:37;;;;;;;9.68;2.42;;;;;;;-141.23;100.00;62281.09;4985907;28;20048;-73
2023/11/18 07:09:12;;;;;;;6.28;1.70;;;;;;;-141.23;100.00;62281.09;5003046;28;20049;-72
2023/11/18 07:11:40;;;;;;;4.82;1.75;;;;;;;-141.23;100.00;62281.09;4986209;28;20125;-71
2023/11/18 07:14:09;;;;;;;6.32;2.25;;;;;;;-141.23;100.00;62281.09;5001469;28;20048;-71
2023/11/18 07:16:35;;;;;;;5.80;2.00;;;;;;;-141.23;100.00;62281.09;5080019;27;20047;-72
2023/11/18 07:19:03;;;;;;;7.35;3.03;;;;;;;-141.23;100.00;62281.09;5099287;27;20047;-72
2023/11/18 07:21:29;;;;;;;10.23;2.40;;;;;;;-141.23;100.00;62281.09;5099462;27;20072;-72
2023/11/18 07:23:56;;;;;;;10.27;2.45;;;;;;;-141.23;100.00;62281.09;5111604;28;20522;-72
2023/11/18 07:26:23;;;;;;;6.13;2.78;;;;;;;-141.23;100.00;62281.09;5078015;28;20376;-71
2023/11/18 07:28:51;;;;;;;5.97;2.75;;;;;;;-141.23;100.00;62281.09;5095059;28;20047;-73
2023/11/18 07:31:18;;;;;;;6.32;3.08;;;;;;;-141.23;100.00;62281.09;5094736;28;20371;-72
2023/11/18 07:33:49;;;;;;;5.55;2.45;;;;;;;-141.23;100.00;62281.09;5093920;28;20055;-72
2023/11/18 07:36:19;;;;;;;6.38;2.25;;;;;;;-141.23;100.00;62281.09;5061483;28;20083;-73
2023/11/18 07:38:46;;;;;;;6.45;2.90;;;;;;;-141.23;100.00;62281.09;5077020;28;20948;-72
2023/11/18 07:41:23;;;;;;;6.65;2.95;;;;;;;-141.23;100.00;62281.09;5111294;28;20051;-72
2023/11/18 07:43:51;;;;;;;7.63;2.75;;;;;;;-141.23;100.00;62281.09;5046179;28;20078;-72
2023/11/18 07:46:17;;;;;;;5.00;2.92;;;;;;;-141.23;100.00;62281.09;5076918;28;20059;-73
2023/11/18 07:48:43;;;;;;;7.65;3.33;;;;;;;-141.23;100.00;62281.09;5079482;28;20047;-82
2023/11/18 07:51:10;;;;;;;10.32;3.30;;;;;;;-141.23;100.00;62281.09;5098838;28;20138;-81
2023/11/18 07:53:41;;;;;;;10.25;4.10;;;;;;;-141.23;100.00;62281.09;5054562;28;20055;-82
2023/11/18 07:56:10;;;;;;;10.85;3.78;;;;;;;-141.23;100.00;62281.09;5038929;28;20079;-83
2023/11/18 07:58:37;;;;;;;7.65;3.45;;;;;;;-141.23;100.00;62281.09;5037019;28;20110;-82
2023/11/18 08:01:07;;;;;;;6.07;3.03;;;;;;;-141.23;100.00;62281.09;5036122;28;20476;-82
2023/11/18 08:03:33;;;;;;;9.48;3.40;;;;;;;-141.23;100.00;62281.09;5053480;28;20048;-82
2023/11/18 08:05:59;;;;;;;11.65;4.60;;;;;;;-141.23;100.00;62281.09;5036669;28;20056;-82
2023/11/18 08:08:25;;;;;;;9.75;4.03;;;;;;;-141.23;100.00;62281.09;5053379;28;20377;-81
2023/11/18 08:10:51;;;;;;;8.82;4.25;;;;;;;-141.23;100.00;62281.09;5053741;28;20040;-83
2023/11/18 08:13:16;;;;;;;11.15;4.05;;;;;;;-141.23;100.00;62281.09;5053125;28;20107;-83
2023/11/18 08:15:46;;;;;;;10.05;3.83;;;;;;;-141.23;100.00;62281.09;5053808;28;20121;-82
2023/11/18 08:18:12;;;;;;;8.95;3.78;;;;;;;-141.23;100.00;62281.09;5053542;28;20036;-83
2023/11/18 08:20:38;;;;;;;12.60;5.15;;;;;;;-141.23;100.00;62281.09;5053469;28;20476;-82
2023/11/18 08:23:04;;;;;;;16.42;5.72;;;;;;;-141.23;100.00;62281.09;5053535;28;20460;-83
2023/11/18 08:25:33;;;;;;;14.43;5.15;;;;;;;-141.23;100.00;62281.09;5107482;27;20327;-82
2023/11/18 08:28:03;;;;;;;10.07;4.35;;;;;;;-141.23;100.00;62281.09;5098886;27;20038;-82
2023/11/18 08:30:30;;;;;;;8.50;3.78;;;;;;;-141.23;100.00;62281.09;5099170;27;20043;-82
2023/11/18 08:32:58;;;;;;;11.48;3.05;;;;;;;-141.23;100.00;62281.09;5082204;27;20046;-80
2023/11/18 08:35:25;;;;;;;10.90;3.60;;;;;;;-141.23;100.00;62281.09;5098814;27;20043;-82
2023/11/18 08:37:52;;;;;;;6.72;3.45;;;;;;;-141.23;100.00;62281.09;5115772;27;20035;-83
2023/11/18 08:40:25;;;;;;;9.52;3.60;;;;;;;-141.23;100.00;62281.09;5115319;27;20039;-83
2023/11/18 08:42:53;;;;;;;9.00;3.40;;;;;;;-141.23;100.00;62281.09;5098357;27;20402;-83
2023/11/18 08:45:21;;;;;;;6.50;3.60;;;;;;;-141.23;100.00;62281.09;5098653;27;20506;-83
2023/11/18 08:47:48;;;;;;;8.93;3.00;;;;;;;-141.23;100.00;62281.09;5081522;27;20042;-83
2023/11/18 08:50:17;;;;;;;5.57;3.00;;;;;;;-141.23;100.00;62281.09;5097772;27;20081;-82
2023/11/18 08:52:49;;;;;;;8.93;3.05;;;;;;;-141.23;100.00;62281.09;5114811;27;20452;-82
2023/11/18 08:55:20;;;;;;;9.10;3.50;;;;;;;-141.23;100.00;62281.09;5081108;27;20087;-83
2023/11/18 08:57:59;;;;;;;5.53;2.97;;;;;;;-141.23;100.00;62281.09;5115588;27;20050;-82
2023/11/18 09:05:58;;;;;;;10.77;4.15;;;;;;;-141.23;100.00;62281.09;5076534;28;20071;-81
2023/11/18 09:08:31;;;;;;;8.30;4.10;;;;;;;-141.23;100.00;62281.09;5056855;28;20469;-78
2023/11/18 09:10:58;;;;;;;9.88;4.03;;;;;;;-141.23;100.00;62281.09;5059178;28;20046;-81
2023/11/18 09:13:28;;;;;;;10.02;3.85;;;;;;;-141.23;100.00;62281.09;5065289;27;20137;-78
2023/11/18 09:16:00;;;;;;;;;;;;;;;-141.23;100.00;62281.09;5096488;27;20038;-80
2023/11/18 09:18:34;;;;;;;7.18;3.40;;;;;;;-141.23;100.00;62281.09;5100221;27;19922;-81
2023/11/18 09:21:06;;;;;;;11.20;4.53;;;;;;;-141.23;100.00;62281.09;5117259;27;20435;-78
2023/11/18 09:23:37;;;;;;;16.98;6.15;;;;;;;-141.23;100.00;62281.09;5114675;27;20063;-79
2023/11/18 09:26:07;;;;;;;12.70;6.07;;;;;;;-141.23;100.00;62281.09;5099657;27;20151;-82
2023/11/18 09:28:37;;;;;;;9.40;4.57;;;;;;;-141.23;100.00;62281.09;5100227;27;20030;-82
2023/11/18 09:31:04;;;;;;;10.77;4.50;;;;;;;-141.23;100.00;62281.09;5117307;27;20434;-82
2023/11/18 09:33:32;;;;;;;11.25;4.30;;;;;;;-141.23;100.00;62281.09;5094767;27;20134;-81
2023/11/18 09:36:07;;;;;;;12.00;4.40;;;;;;;-141.23;100.00;62281.09;5134269;27;20046;-81
2023/11/18 09:38:40;;;;;;;8.35;4.10;;;;;;;-141.23;100.00;62281.09;5115135;27;20056;-82
2023/11/18 09:41:13;;;;;;;6.82;4.13;;;;;;;-141.23;100.00;62281.09;5132235;27;20049;-83
2023/11/18 09:43:46;;;;;;;5.38;2.70;;;;;;;-141.23;100.00;62281.09;5100665;27;20042;-82
2023/11/18 09:46:12;;;;;;;11.15;3.03;;;;;;;-141.23;100.00;62281.09;5106469;27;20073;-83
2023/11/18 09:48:52;;;;;;;14.88;6.10;;;;;;;-141.23;100.00;62281.09;5108684;27;20051;-82
2023/11/18 09:51:23;;;;;;;10.43;5.25;;;;;;;-141.23;100.00;62281.09;5096696;27;20045;-80
2023/11/18 09:53:52;;;;;;;6.72;3.50;;;;;;;-141.23;100.00;62281.09;5078536;27;20073;-82
2023/11/18 09:56:37;;;;;;;8.75;5.60;;;;;;;-141.23;100.00;62281.09;5062290;28;20043;-80
2023/11/18 09:59:15;;;;;;;17.40;7.57;;;;;;;-141.23;100.00;62281.09;5077332;28;20050;-82
2023/11/18 10:01:46;;;;;;;12.23;4.95;;;;;;;-141.23;100.00;62281.09;5079251;28;20115;-81
2023/11/18 10:04:17;;;;;;;9.98;4.10;;;;;;;-141.23;100.00;62281.09;5061766;27;20027;-82
2023/11/18 10:06:45;;;;;;;19.63;6.55;;;;;;;-141.23;100.00;62281.09;5080768;27;20104;-81
2023/11/18 10:09:18;;;;;;;12.48;7.28;;;;;;;-141.23;100.00;62281.09;5065813;27;20130;-81
2023/11/18 10:11:47;;;;;;;12.10;5.70;;;;;;;-141.23;100.00;62281.09;5098586;27;20059;-80
2023/11/18 10:14:18;;;;;;;16.25;6.32;;;;;;;-141.23;100.00;62281.09;5079937;27;20066;-81
2023/11/18 10:16:46;;;;;;;13.15;5.28;;;;;;;-141.23;100.00;62281.09;5082249;27;20126;-80
2023/11/18 10:19:14;;;;;;;10.73;3.95;;;;;;;-141.23;100.00;62281.09;5061060;27;20059;-80
2023/11/18 10:21:40;;;;;;;12.05;3.97;;;;;;;-141.23;100.00;62281.09;5100341;27;20085;-80
2023/11/18 10:24:19;;;;;;;10.05;4.95;;;;;;;-141.23;100.00;62281.09;5066451;27;20043;-79
2023/11/18 10:26:47;;;;;;;13.27;4.68;;;;;;;-141.23;100.00;62281.09;5099696;27;20050;-79
2023/11/18 10:29:14;;;;;;;10.60;4.60;;;;;;;-141.23;100.00;62281.09;5083029;27;20042;-77
2023/11/18 10:31:46;;;;;;;10.73;4.53;;;;;;;-141.23;100.00;62281.09;5107983;27;20051;-78
2023/11/18 10:34:15;;;;;;;11.80;6.00;;;;;;;-141.23;100.00;62281.09;5104684;27;20039;-79
2023/11/18 10:36:43;;;;;;;12.60;5.97;;;;;;;-141.23;100.00;62281.09;5154833;27;20511;-78
2023/11/18 10:39:16;;;;;;;14.27;5.53;;;;;;;-141.23;100.00;62281.09;5103540;27;20146;-79
2023/11/18 10:41:49;;;;;;;10.48;4.18;;;;;;;-141.23;100.00;62281.09;5139899;27;20049;-78
2023/11/18 10:44:16;;;;;;;10.65;4.07;;;;;;;-141.23;100.00;62281.09;5090526;27;20041;-77
2023/11/18 10:46:52;;;;;;;10.90;4.30;;;;;;;-141.23;100.00;62281.09;5099791;27;20478;-78
2023/11/18 10:49:20;;;;;;;13.25;4.78;;;;;;;-141.23;100.00;62281.09;5082645;27;20138;-79
2023/11/18 10:51:47;;;;;;;12.20;5.82;;;;;;;-141.23;100.00;62281.09;5083235;27;20035;-79
2023/11/18 10:54:17;;;;;;;13.07;4.63;;;;;;;-141.23;100.00;62281.09;5056898;28;20650;-79
2023/11/18 10:56:49;;;;;;;9.43;4.10;;;;;;;-141.23;100.00;62281.09;5057260;28;20621;-77
2023/11/18 10:59:18;;;;;;;12.32;4.30;;;;;;;-141.23;100.00;62281.09;5037539;28;20063;-79
2023/11/18 11:01:45;;;;;;;14.45;4.38;;;;;;;-141.23;100.00;62281.09;5054569;28;20050;-77
2023/11/18 11:04:12;;;;;;;15.40;4.20;;;;;;;-141.23;100.00;62281.09;5054429;28;20048;-80
2023/11/18 11:06:43;;;;;;;18.60;5.53;;;;;;;-141.23;100.00;62281.09;4975422;28;20669;-81
2023/11/18 11:09:17;;;;;;;15.00;5.78;;;;;;;-141.23;100.00;62281.09;4975940;28;20393;-80
2023/11/18 11:11:49;;;;;;;18.17;6.28;;;;;;;-141.23;100.00;62281.09;4941208;28;20065;-79
2023/11/18 11:14:21;;;;;;;23.02;5.55;;;;;;;-141.23;100.00;62281.09;4971840;28;20069;-75
2023/11/18 11:16:55;;;;;;;11.80;5.18;;;;;;;-141.23;100.00;62281.09;4925339;28;20054;-80
2023/11/18 11:19:44;;;;;;;14.48;5.47;;;;;;;-141.23;100.00;62281.09;4957386;28;20172;-80
2023/11/18 11:22:15;;;;;;;14.45;5.25;;;;;;;-141.23;100.00;62281.09;4972740;28;20055;-78